Observation data for Slaton on 11/11/2019      Previous  Date       Current Mesonet Observations  Soil Data  Daily Summary Page  Observations in Plain Language
KSLS 110600Z 21010KT 14/11 A2987 RMK A01 T01400113  RH  085%=      5-min Rain = 0
KSLS 110605Z 21010KT 14/11 A2986 RMK A01 T01370111  RH  086%=      5-min Rain = 0
KSLS 110610Z 22011KT 14/11 A2986 RMK A01 T01360111  RH  087%=      5-min Rain = 0
KSLS 110615Z 22011KT 14/11 A2986 RMK A01 T01370111  RH  086%=      5-min Rain = 0
KSLS 110620Z 22011KT 14/11 A2986 RMK A01 T01360110  RH  086%=      5-min Rain = 0
KSLS 110625Z 22011KT 14/11 A2986 RMK A01 T01360110  RH  086%=      5-min Rain = 0
KSLS 110630Z 22011KT 14/11 A2986 RMK A01 T01350109  RH  086%=      5-min Rain = 0
KSLS 110635Z 22010KT 13/11 A2986 RMK A01 T01340108  RH  086%=      5-min Rain = 0
KSLS 110640Z 22010KT 13/11 A2986 RMK A01 T01330107  RH  086%=      5-min Rain = 0
KSLS 110645Z 22009KT 13/11 A2986 RMK A01 T01320106  RH  086%=      5-min Rain = 0
KSLS 110650Z 22009KT 13/11 A2986 RMK A01 T01310105  RH  086%=      5-min Rain = 0
KSLS 110655Z 22010KT 13/11 A2986 RMK A01 T01320105  RH  085%=      5-min Rain = 0
KSLS 110700Z 22011KT 13/11 A2986 RMK A01 T01330105  RH  085%=      5-min Rain = 0
KSLS 110705Z 23011KT 13/10 A2986 RMK A01 T01340104  RH  084%=      5-min Rain = 0
KSLS 110710Z 23011KT 14/10 A2986 RMK A01 T01350104  RH  083%=      5-min Rain = 0
KSLS 110715Z 23010KT 14/10 A2986 RMK A01 T01350103  RH  082%=      5-min Rain = 0
KSLS 110720Z 24009KT 13/10 A2986 RMK A01 T01340103  RH  083%=      5-min Rain = 0
KSLS 110725Z 24010KT 14/10 A2986 RMK A01 T01350103  RH  082%=      5-min Rain = 0
KSLS 110730Z 25009KT 14/10 A2986 RMK A01 T01350102  RH  082%=      5-min Rain = 0
KSLS 110735Z 32008KT 13/10 A2987 RMK A01 T01310100  RH  083%=      5-min Rain = 0
KSLS 110740Z 33007KT 13/10 A2988 RMK A01 T01270101  RH  086%=      5-min Rain = 0
KSLS 110745Z 33009KT 13/10 A2988 RMK A01 T01270100  RH  085%=      5-min Rain = 0
KSLS 110750Z 32008KT 13/10 A2988 RMK A01 T01290099  RH  083%=      5-min Rain = 0
KSLS 110755Z 32007KT 13/10 A2988 RMK A01 T01280098  RH  083%=      5-min Rain = 0
KSLS 110800Z 33007KT 13/10 A2988 RMK A01 T01270098  RH  084%=      5-min Rain = 0
KSLS 110805Z 33007KT 13/10 A2988 RMK A01 T01250096  RH  084%=      5-min Rain = 0
KSLS 110810Z 33007KT 13/09 A2988 RMK A01 T01250093  RH  082%=      5-min Rain = 0
KSLS 110815Z 33006KT 13/09 A2988 RMK A01 T01250089  RH  080%=      5-min Rain = 0
KSLS 110820Z 33006KT 12/09 A2988 RMK A01 T01240086  RH  079%=      5-min Rain = 0
KSLS 110825Z 32005KT 12/08 A2988 RMK A01 T01230084  RH  078%=      5-min Rain = 0
KSLS 110830Z 32005KT 12/08 A2988 RMK A01 T01240082  RH  077%=      5-min Rain = 0
KSLS 110835Z 31005KT 12/08 A2988 RMK A01 T01230081  RH  077%=      5-min Rain = 0
KSLS 110840Z 31005KT 12/08 A2988 RMK A01 T01220080  RH  077%=      5-min Rain = 0
KSLS 110845Z 31005KT 12/08 A2988 RMK A01 T01200080  RH  078%=      5-min Rain = 0
KSLS 110850Z 30006KT 12/08 A2988 RMK A01 T01210079  RH  077%=      5-min Rain = 0
KSLS 110855Z 29006KT 12/08 A2988 RMK A01 T01210079  RH  077%=      5-min Rain = 0
KSLS 110900Z 29005KT 12/08 A2988 RMK A01 T01180079  RH  078%=      5-min Rain = 0
KSLS 110905Z 27005KT 12/08 A2989 RMK A01 T01180079  RH  079%=      5-min Rain = 0
KSLS 110910Z 27005KT 12/08 A2989 RMK A01 T01170080  RH  079%=      5-min Rain = 0
KSLS 110915Z 28007KT 12/08 A2989 RMK A01 T01180079  RH  078%=      5-min Rain = 0
KSLS 110920Z 29007KT 12/08 A299 RMK A01 T01190078  RH  078%=      5-min Rain = 0
KSLS 110925Z 29006KT 12/08 A299 RMK A01 T01180078  RH  078%=      5-min Rain = 0
KSLS 110930Z 28006KT 12/08 A2991 RMK A01 T01170079  RH  079%=      5-min Rain = 0
KSLS 110935Z 28006KT 12/08 A2991 RMK A01 T01160079  RH  079%=      5-min Rain = 0
KSLS 110940Z 28006KT 11/08 A2991 RMK A01 T01140079  RH  080%=      5-min Rain = 0
KSLS 110945Z 28007KT 11/08 A2991 RMK A01 T01140078  RH  080%=      5-min Rain = 0
KSLS 110950Z 29006KT 11/08 A2991 RMK A01 T01130076  RH  079%=      5-min Rain = 0
KSLS 110955Z 28006KT 11/08 A2991 RMK A01 T01110075  RH  080%=      5-min Rain = 0
KSLS 111000Z 30007KT 11/08 A2992 RMK A01 T01090075  RH  081%=      5-min Rain = 0
KSLS 111005Z 33010KT 11/07 A2992 RMK A01 T01130069  RH  076%=      5-min Rain = 0
KSLS 111010Z 34014G19KT 12/06 A2992 RMK A01 T01190059  RH  068%=      5-min Rain = 0
KSLS 111015Z 34015G20KT 12/05 A2993 RMK A01 T01160052  RH  066%=      5-min Rain = 0
KSLS 111020Z 35015G21KT 11/04 A2994 RMK A01 T01110044  RH  064%=      5-min Rain = 0
KSLS 111025Z 35015G24KT 11/04 A2994 RMK A01 T01060036  RH  062%=      5-min Rain = 0
KSLS 111030Z 35018G26KT 10/03 A2995 RMK A01 T01020030  RH  062%=      5-min Rain = 0
KSLS 111035Z 36020G30KT 10/03 A2996 RMK A01 T00960028  RH  063%=      5-min Rain = 0
KSLS 111040Z 36018G25KT 09/03 A2997 RMK A01 T00920028  RH  065%=      5-min Rain = 0
KSLS 111045Z 35018G26KT 09/03 A2997 RMK A01 T00890029  RH  067%=      5-min Rain = 0
KSLS 111050Z 35018G30KT 09/03 A2997 RMK A01 T00850030  RH  069%=      5-min Rain = 0
KSLS 111055Z 35019G27KT 08/03 A2998 RMK A01 T00810031  RH  071%=      5-min Rain = 0
KSLS 111100Z 36016G23KT 08/03 A2998 RMK A01 T00790033  RH  073%=      5-min Rain = 0
KSLS 111105Z 36019G28KT 08/04 A2999 RMK A01 T00780037  RH  077%=      5-min Rain = 0
KSLS 111110Z 00018G25KT 08/04 A2999 RMK A01 T00770041  RH  079%=      5-min Rain = 0
KSLS 111115Z 36019G28KT 08/04 A30 RMK A01 T00760044  RH  081%=      5-min Rain = 0
KSLS 111120Z 00020G30KT 08/05 A3002 RMK A01 T00750045  RH  083%=      5-min Rain = 0
KSLS 111125Z 36016G22KT 07/05 A3002 RMK A01 T00740045  RH  083%=      5-min Rain = 0
KSLS 111130Z 36021G29KT 08/04 A3002 RMK A01 T00750043  RH  082%=      5-min Rain = 0
KSLS 111135Z 36023G33KT 07/04 A3002 RMK A01 T00740041  RH  080%=      5-min Rain = 0
KSLS 111140Z 36021G30KT 07/04 A3003 RMK A01 T00740040  RH  080%=      5-min Rain = 0
KSLS 111145Z 35020G26KT 07/04 A3004 RMK A01 T00740039  RH  080%=      5-min Rain = 0
KSLS 111150Z 36017G25KT 07/04 A3005 RMK A01 T00730038  RH  079%=      5-min Rain = 0
KSLS 111155Z 35019G29KT 07/04 A3005 RMK A01 T00720036  RH  079%=      5-min Rain = 0
KSLS 111200Z 00021G28KT 07/03 A3006 RMK A01 T00710034  RH  078%=      5-min Rain = 0
KSLS 111205Z 00020G31KT 07/03 A3006 RMK A01 T00710032  RH  078%=      5-min Rain = 0
KSLS 111210Z 36018G28KT 07/03 A3007 RMK A01 T00690030  RH  077%=      5-min Rain = 0
KSLS 111215Z 35020G30KT 07/03 A3008 RMK A01 T00660026  RH  077%=      5-min Rain = 0
KSLS 111220Z 36025G35KT 06/02 A3008 RMK A01 T00630021  RH  076%=      5-min Rain = 0
KSLS 111225Z 00023G31KT 06/02 A3009 RMK A01 T00610020  RH  076%=      5-min Rain = 0
KSLS 111230Z 36022G32KT 06/02 A3009 RMK A01 T00580017  RH  076%=      5-min Rain = 0
KSLS 111235Z 35024G34KT 05/01 A3009 RMK A01 T00530012  RH  076%=      5-min Rain = 0
KSLS 111240Z 00022G31KT 05/01 A301 RMK A01 T00510013  RH  077%=      5-min Rain = 0
KSLS 111245Z 00023G31KT 05/01 A3011 RMK A01 T00480011  RH  078%=      5-min Rain = 0
KSLS 111250Z 36024G34KT 04/01 A3011 RMK A01 T00440007  RH  078%=      5-min Rain = 0
KSLS 111255Z 36025G35KT 04/00 A3012 RMK A01 T00380004  RH  079%=      5-min Rain = 0
KSLS 111300Z 00024G34KT 03/00 A3013 RMK A01 T00340003  RH  081%=      5-min Rain = 0
KSLS 111305Z 36023G32KT 03/00 A3013 RMK A01 T00320002  RH  081%=      5-min Rain = 0
KSLS 111310Z 36022G30KT 03/M00 A3014 RMK A01 T00281003  RH  081%=      5-min Rain = 0
KSLS 111315Z 00023G30KT 03/M01 A3014 RMK A01 T00251005  RH  082%=      5-min Rain = 0
KSLS 111320Z 36021G31KT 02/M01 A3014 RMK A01 T00211008  RH  082%=      5-min Rain = 0
KSLS 111325Z 36023G33KT 02/M01 A3014 RMK A01 T00171010  RH  083%=      5-min Rain = 0
KSLS 111330Z 36024G31KT 02/M01 A3015 RMK A01 T00151013  RH  083%=      5-min Rain = 0
KSLS 111335Z 35024G32KT 01/M01 A3015 RMK A01 T00131014  RH  084%=      5-min Rain = 0
KSLS 111340Z 35025G33KT 01/M01 A3016 RMK A01 T00121014  RH  084%=      5-min Rain = 0
KSLS 111345Z 36025G32KT 01/M02 A3016 RMK A01 T00101017  RH  083%=      5-min Rain = 0
KSLS 111350Z 35023G33KT 01/M02 A3017 RMK A01 T00081019  RH  083%=      5-min Rain = 0
KSLS 111355Z 36025G32KT 01/M02 A3017 RMK A01 T00081020  RH  083%=      5-min Rain = 0
KSLS 111400Z 36026G39KT 01/M02 A3017 RMK A01 T00081019  RH  083%=      5-min Rain = 0
KSLS 111405Z 00030G38KT 01/M02 A3018 RMK A01 T00061022  RH  082%=      5-min Rain = 0
KSLS 111410Z 01025G35KT 01/M02 A3019 RMK A01 T00051023  RH  083%=      5-min Rain = 0
KSLS 111415Z 00022G34KT 00/M02 A302 RMK A01 T00041022  RH  083%=      5-min Rain = 0
KSLS 111420Z 00020G30KT 01/M02 A3022 RMK A01 T00051021  RH  084%=      5-min Rain = 0
KSLS 111425Z 01016G26KT 01/M02 A3023 RMK A01 T00051020  RH  084%=      5-min Rain = 0
KSLS 111430Z 00020G34KT 00/M02 A3024 RMK A01 T00041021  RH  084%=      5-min Rain = 0
KSLS 111435Z 01021G30KT 00/M02 A3025 RMK A01 T00031022  RH  084%=      5-min Rain = 0
KSLS 111440Z 00025G35KT 00/M02 A3025 RMK A01 T00021023  RH  084%=      5-min Rain = 0
KSLS 111445Z 00022G32KT 00/M02 A3026 RMK A01 T00021023  RH  085%=      5-min Rain = 0
KSLS 111450Z 35023G30KT M00/M03 A3026 RMK A01 T10011025  RH  085%=      5-min Rain = 0
KSLS 111455Z 00022G32KT M00/M03 A3026 RMK A01 T10021025  RH  086%=      5-min Rain = 0
KSLS 111500Z 00025G35KT M00/M03 A3026 RMK A01 T10031025  RH  086%=      5-min Rain = 0
KSLS 111505Z 01024G33KT M00/M03 A3027 RMK A01 T10041027  RH  086%=      5-min Rain = 0
KSLS 111510Z 01022G32KT M00/M03 A3027 RMK A01 T10041026  RH  086%=      5-min Rain = 0
KSLS 111515Z 00022G30KT M00/M03 A3028 RMK A01 T10041027  RH  086%=      5-min Rain = 0
KSLS 111520Z 00024G32KT M01/M03 A3028 RMK A01 T10071030  RH  085%=      5-min Rain = 0
KSLS 111525Z 36020G27KT M01/M03 A3029 RMK A01 T10061030  RH  085%=      5-min Rain = 0
KSLS 111530Z 00021G30KT M01/M03 A303 RMK A01 T10081030  RH  086%=      5-min Rain = 0
KSLS 111535Z 00022G31KT M01/M03 A303 RMK A01 T10111032  RH  086%=      5-min Rain = 0
KSLS 111540Z 35022G31KT M02/M04 A3031 RMK A01 T10151038  RH  085%=      5-min Rain = 0
KSLS 111545Z 35023G33KT M02/M04 A3031 RMK A01 T10161040  RH  084%=      5-min Rain = 0
KSLS 111550Z 00024G33KT M02/M04 A3032 RMK A01 T10151040  RH  084%=      5-min Rain = 0
KSLS 111555Z 00022G32KT M02/M05 A3034 RMK A01 T10181045  RH  083%=      5-min Rain = 0
KSLS 111600Z 01026G35KT M02/M05 A3034 RMK A01 T10211048  RH  083%=      5-min Rain = 0
KSLS 111605Z 01021G30KT M02/M05 A3034 RMK A01 T10211047  RH  083%=      5-min Rain = 0
KSLS 111610Z 00017G25KT M02/M05 A3034 RMK A01 T10211047  RH  083%=      5-min Rain = 0
KSLS 111615Z 00020G31KT M02/M05 A3034 RMK A01 T10201048  RH  083%=      5-min Rain = 0
KSLS 111620Z 00019G29KT M02/M05 A3035 RMK A01 T10201048  RH  082%=      5-min Rain = 0
KSLS 111625Z 00024G35KT M02/M05 A3035 RMK A01 T10221051  RH  082%=      5-min Rain = 0
KSLS 111630Z 01021G29KT M02/M05 A3035 RMK A01 T10241052  RH  082%=      5-min Rain = 0
KSLS 111635Z 00018G28KT M02/M05 A3036 RMK A01 T10241051  RH  082%=      5-min Rain = 0
KSLS 111640Z 35022G30KT M03/M06 A3036 RMK A01 T10261055  RH  082%=      5-min Rain = 0
KSLS 111645Z 36021G30KT M03/M06 A3037 RMK A01 T10271055  RH  082%=      5-min Rain = 0
KSLS 111650Z 01017G24KT M03/M05 A3038 RMK A01 T10261053  RH  082%=      5-min Rain = 0
KSLS 111655Z 01017G24KT M02/M05 A3038 RMK A01 T10241052  RH  082%=      5-min Rain = 0
KSLS 111700Z 01019G34KT M02/M05 A3038 RMK A01 T10231053  RH  081%=      5-min Rain = 0
KSLS 111705Z 01022G31KT M03/M06 A3039 RMK A01 T10251057  RH  080%=      5-min Rain = 0
KSLS 111710Z 01020G30KT M03/M06 A304 RMK A01 T10251057  RH  079%=      5-min Rain = 0
KSLS 111715Z 01022G33KT M03/M06 A304 RMK A01 T10261058  RH  079%=      5-min Rain = 0
KSLS 111720Z 01022G31KT M03/M06 A304 RMK A01 T10261060  RH  079%=      5-min Rain = 0
KSLS 111725Z 01021G32KT M03/M06 A304 RMK A01 T10271061  RH  078%=      5-min Rain = 0
KSLS 111730Z 00022G34KT M03/M06 A304 RMK A01 T10271061  RH  078%=      5-min Rain = 0
KSLS 111735Z 01023G33KT M03/M06 A304 RMK A01 T10271063  RH  078%=      5-min Rain = 0
KSLS 111740Z 01019G31KT M03/M06 A304 RMK A01 T10271061  RH  078%=      5-min Rain = 0
KSLS 111745Z 01016G21KT M03/M06 A3041 RMK A01 T10251059  RH  078%=      5-min Rain = 0
KSLS 111750Z 01022G29KT M03/M06 A3041 RMK A01 T10261061  RH  077%=      5-min Rain = 0
KSLS 111755Z 01015G23KT M03/M06 A3041 RMK A01 T10251060  RH  078%=      5-min Rain = 0
KSLS 111800Z 00016G23KT M02/M06 A3041 RMK A01 T10231058  RH  078%=      5-min Rain = 0
KSLS 111805Z 00019G28KT M02/M06 A3041 RMK A01 T10241060  RH  077%=      5-min Rain = 0
KSLS 111810Z 00021G29KT M03/M06 A3041 RMK A01 T10271064  RH  077%=      5-min Rain = 0
KSLS 111815Z 00023G31KT M03/M07 A3041 RMK A01 T10281065  RH  077%=      5-min Rain = 0
KSLS 111820Z 01020G31KT M03/M07 A3041 RMK A01 T10281065  RH  077%=      5-min Rain = 0
KSLS 111825Z 36020G28KT M03/M06 A3041 RMK A01 T10281064  RH  077%=      5-min Rain = 0
KSLS 111830Z 36022G29KT M03/M07 A3041 RMK A01 T10321066  RH  078%=      5-min Rain = 0
KSLS 111835Z 36021G29KT M03/M07 A3041 RMK A01 T10311066  RH  078%=      5-min Rain = 0
KSLS 111840Z 00022G29KT M03/M07 A3041 RMK A01 T10311067  RH  077%=      5-min Rain = 0
KSLS 111845Z 01020G28KT M03/M07 A3041 RMK A01 T10311070  RH  076%=      5-min Rain = 0
KSLS 111850Z 01022G30KT M03/M07 A3041 RMK A01 T10311072  RH  074%=      5-min Rain = 0
KSLS 111855Z 01022G29KT M03/M07 A304 RMK A01 T10311074  RH  073%=      5-min Rain = 0
KSLS 111900Z 36019G27KT M03/M07 A3041 RMK A01 T10301073  RH  073%=      5-min Rain = 0
KSLS 111905Z 36020G30KT M03/M08 A3041 RMK A01 T10291075  RH  071%=      5-min Rain = 0
KSLS 111910Z 01019G30KT M03/M08 A304 RMK A01 T10291076  RH  071%=      5-min Rain = 0
KSLS 111915Z 00022G31KT M03/M08 A304 RMK A01 T10291077  RH  071%=      5-min Rain = 0
KSLS 111920Z 01020G30KT M03/M08 A304 RMK A01 T10291075  RH  071%=      5-min Rain = 0
KSLS 111925Z 35021G29KT M03/M07 A3041 RMK A01 T10291073  RH  072%=      5-min Rain = 0
KSLS 111930Z 00021G28KT M03/M08 A3041 RMK A01 T10301075  RH  072%=      5-min Rain = 0
KSLS 111935Z 01023G31KT M03/M08 A3041 RMK A01 T10301077  RH  071%=      5-min Rain = 0
KSLS 111940Z 01022G30KT M03/M08 A3041 RMK A01 T10291077  RH  070%=      5-min Rain = 0
KSLS 111945Z 01015G23KT M03/M08 A3041 RMK A01 T10261075  RH  070%=      5-min Rain = 0
KSLS 111950Z 00020G28KT M02/M08 A3041 RMK A01 T10241076  RH  068%=      5-min Rain = 0
KSLS 111955Z 01022G31KT M03/M08 A3041 RMK A01 T10251079  RH  067%=      5-min Rain = 0
KSLS 112000Z 01019G29KT M02/M08 A3041 RMK A01 T10231078  RH  067%=      5-min Rain = 0
KSLS 112005Z 36022G31KT M03/M08 A3041 RMK A01 T10251081  RH  066%=      5-min Rain = 0
KSLS 112010Z 36021G29KT M03/M08 A3041 RMK A01 T10261083  RH  066%=      5-min Rain = 0
KSLS 112015Z 00019G28KT M03/M08 A3041 RMK A01 T10251081  RH  066%=      5-min Rain = 0
KSLS 112020Z 01017G26KT M02/M08 A3042 RMK A01 T10241080  RH  066%=      5-min Rain = 0
KSLS 112025Z 00019G26KT M03/M08 A3042 RMK A01 T10251083  RH  065%=      5-min Rain = 0
KSLS 112030Z 01018G25KT M03/M09 A3042 RMK A01 T10251085  RH  064%=      5-min Rain = 0
KSLS 112035Z 01021G28KT M03/M09 A3042 RMK A01 T10251086  RH  064%=      5-min Rain = 0
KSLS 112040Z 01022G30KT M03/M09 A3043 RMK A01 T10251089  RH  062%=      5-min Rain = 0
KSLS 112045Z 00017G25KT M02/M09 A3043 RMK A01 T10241088  RH  062%=      5-min Rain = 0
KSLS 112050Z 01020G29KT M02/M09 A3043 RMK A01 T10231089  RH  061%=      5-min Rain = 0
KSLS 112055Z 01020G28KT M02/M09 A3043 RMK A01 T10231090  RH  061%=      5-min Rain = 0
KSLS 112100Z 01018G24KT M02/M09 A3044 RMK A01 T10211089  RH  060%=      5-min Rain = 0
KSLS 112105Z 00018G26KT M02/M09 A3044 RMK A01 T10191090  RH  059%=      5-min Rain = 0
KSLS 112110Z 01020G31KT M02/M09 A3044 RMK A01 T10201092  RH  058%=      5-min Rain = 0
KSLS 112115Z 01020G29KT M02/M09 A3044 RMK A01 T10201093  RH  058%=      5-min Rain = 0
KSLS 112120Z 01022G29KT M02/M09 A3044 RMK A01 T10201093  RH  058%=      5-min Rain = 0
KSLS 112125Z 01024G31KT M02/M09 A3043 RMK A01 T10191094  RH  057%=      5-min Rain = 0
KSLS 112130Z 01020G30KT M02/M09 A3043 RMK A01 T10181093  RH  057%=      5-min Rain = 0
KSLS 112135Z 01021G30KT M02/M09 A3044 RMK A01 T10171093  RH  057%=      5-min Rain = 0
KSLS 112140Z 01018G25KT M02/M09 A3045 RMK A01 T10161092  RH  057%=      5-min Rain = 0
KSLS 112145Z 01015G21KT M02/M09 A3046 RMK A01 T10151091  RH  057%=      5-min Rain = 0
KSLS 112150Z 01020G27KT M02/M09 A3046 RMK A01 T10161093  RH  056%=      5-min Rain = 0
KSLS 112155Z 01016G22KT M02/M09 A3046 RMK A01 T10171094  RH  056%=      5-min Rain = 0
KSLS 112200Z 02013G19KT M02/M09 A3047 RMK A01 T10151091  RH  057%=      5-min Rain = 0
KSLS 112205Z 01015KT M01/M09 A3047 RMK A01 T10141091  RH  057%=      5-min Rain = 0
KSLS 112210Z 01021G28KT M02/M10 A3047 RMK A01 T10151096  RH  055%=      5-min Rain = 0
KSLS 112215Z 02019G27KT M02/M10 A3048 RMK A01 T10161097  RH  055%=      5-min Rain = 0
KSLS 112220Z 02017G26KT M02/M10 A3048 RMK A01 T10151095  RH  055%=      5-min Rain = 0
KSLS 112225Z 01017G26KT M02/M10 A3048 RMK A01 T10151096  RH  055%=      5-min Rain = 0
KSLS 112230Z 01014G19KT M01/M09 A3048 RMK A01 T10141093  RH  056%=      5-min Rain = 0
KSLS 112235Z 01016G22KT M01/M09 A3047 RMK A01 T10141094  RH  055%=      5-min Rain = 0
KSLS 112240Z 01018G25KT M02/M09 A3047 RMK A01 T10151094  RH  055%=      5-min Rain = 0
KSLS 112245Z 01018G24KT M02/M10 A3047 RMK A01 T10151095  RH  055%=      5-min Rain = 0
KSLS 112250Z 02017G24KT M02/M09 A3048 RMK A01 T10151094  RH  055%=      5-min Rain = 0
KSLS 112255Z 02016G21KT M02/M09 A3048 RMK A01 T10161094  RH  056%=      5-min Rain = 0
KSLS 112300Z 01016G21KT M02/M09 A3048 RMK A01 T10151093  RH  056%=      5-min Rain = 0
KSLS 112305Z 01014G22KT M01/M09 A3048 RMK A01 T10141093  RH  056%=      5-min Rain = 0
KSLS 112310Z 01014G21KT M01/M09 A3048 RMK A01 T10141092  RH  056%=      5-min Rain = 0
KSLS 112315Z 01017G25KT M01/M09 A3048 RMK A01 T10131093  RH  055%=      5-min Rain = 0
KSLS 112320Z 01019G27KT M01/M10 A3048 RMK A01 T10141097  RH  054%=      5-min Rain = 0
KSLS 112325Z 01017G22KT M01/M10 A3048 RMK A01 T10141097  RH  054%=      5-min Rain = 0
KSLS 112330Z 00017G23KT M01/M10 A3048 RMK A01 T10141097  RH  054%=      5-min Rain = 0
KSLS 112335Z 01017G23KT M01/M10 A3048 RMK A01 T10141096  RH  054%=      5-min Rain = 0
KSLS 112340Z 01017G25KT M01/M10 A3049 RMK A01 T10141097  RH  054%=      5-min Rain = 0
KSLS 112345Z 01013G19KT M01/M10 A3049 RMK A01 T10141095  RH  055%=      5-min Rain = 0
KSLS 112350Z 01012G18KT M01/M10 A305 RMK A01 T10141095  RH  055%=      5-min Rain = 0
KSLS 112355Z 01012G18KT M01/M10 A305 RMK A01 T10141095  RH  055%=      5-min Rain = 0
KSLS 120000Z 02012G18KT M01/M10 A3051 RMK A01 T10141095  RH  055%=      5-min Rain = 0
KSLS 120005Z 01014G21KT M01/M10 A3051 RMK A01 T10141096  RH  054%=      5-min Rain = 0
KSLS 120010Z 01014G21KT M01/M10 A3051 RMK A01 T10141097  RH  054%=      5-min Rain = 0
KSLS 120015Z 01012G18KT M01/M10 A3051 RMK A01 T10141095  RH  055%=      5-min Rain = 0
KSLS 120020Z 02011KT M01/M09 A3052 RMK A01 T10141094  RH  055%=      5-min Rain = 0
KSLS 120025Z 01011KT M01/M09 A3052 RMK A01 T10141094  RH  055%=      5-min Rain = 0
KSLS 120030Z 01012KT M02/M09 A3052 RMK A01 T10151093  RH  056%=      5-min Rain = 0
KSLS 120035Z 01011G17KT M02/M09 A3052 RMK A01 T10151092  RH  056%=      5-min Rain = 0
KSLS 120040Z 01011G16KT M02/M09 A3052 RMK A01 T10151092  RH  056%=      5-min Rain = 0
KSLS 120045Z 01010G16KT M02/M09 A3052 RMK A01 T10151091  RH  057%=      5-min Rain = 0
KSLS 120050Z 01011G16KT M02/M09 A3053 RMK A01 T10151091  RH  057%=      5-min Rain = 0
KSLS 120055Z 01011KT M02/M09 A3053 RMK A01 T10161090  RH  058%=      5-min Rain = 0
KSLS 120100Z 02013KT M02/M09 A3052 RMK A01 T10151092  RH  057%=      5-min Rain = 0
KSLS 120105Z 01013G18KT M02/M09 A3053 RMK A01 T10161093  RH  057%=      5-min Rain = 0
KSLS 120110Z 01013G21KT M02/M09 A3053 RMK A01 T10171094  RH  056%=      5-min Rain = 0
KSLS 120115Z 01014G21KT M02/M10 A3053 RMK A01 T10171095  RH  056%=      5-min Rain = 0
KSLS 120120Z 01014G19KT M02/M10 A3053 RMK A01 T10171096  RH  055%=      5-min Rain = 0
KSLS 120125Z 01011KT M02/M09 A3054 RMK A01 T10181094  RH  057%=      5-min Rain = 0
KSLS 120130Z 02012G17KT M02/M09 A3054 RMK A01 T10181094  RH  057%=      5-min Rain = 0
KSLS 120135Z 01013G20KT M02/M09 A3054 RMK A01 T10181094  RH  057%=      5-min Rain = 0
KSLS 120140Z 02013G18KT M02/M09 A3054 RMK A01 T10181094  RH  057%=      5-min Rain = 0
KSLS 120145Z 02015G21KT M02/M10 A3055 RMK A01 T10191095  RH  057%=      5-min Rain = 0
KSLS 120150Z 01016G23KT M02/M10 A3055 RMK A01 T10201097  RH  056%=      5-min Rain = 0
KSLS 120155Z 01013G19KT M02/M10 A3055 RMK A01 T10211099  RH  056%=      5-min Rain = 0
KSLS 120200Z 01013G21KT M02/M10 A3055 RMK A01 T10231102  RH  055%=      5-min Rain = 0
KSLS 120205Z 00015G23KT M02/M11 A3055 RMK A01 T10231108  RH  053%=      5-min Rain = 0
KSLS 120210Z 01012G17KT M03/M11 A3055 RMK A01 T10251108  RH  053%=      5-min Rain = 0
KSLS 120215Z 01014G23KT M03/M11 A3056 RMK A01 T10251112  RH  052%=      5-min Rain = 0
KSLS 120220Z 01012G17KT M03/M11 A3056 RMK A01 T10261111  RH  053%=      5-min Rain = 0
KSLS 120225Z 01013G20KT M03/M11 A3055 RMK A01 T10271113  RH  052%=      5-min Rain = 0
KSLS 120230Z 01015KT M03/M11 A3056 RMK A01 T10271114  RH  052%=      5-min Rain = 0
KSLS 120235Z 01014G19KT M03/M12 A3056 RMK A01 T10281115  RH  052%=      5-min Rain = 0
KSLS 120240Z 01014KT M03/M12 A3056 RMK A01 T10291115  RH  052%=      5-min Rain = 0
KSLS 120245Z 01010KT M03/M11 A3056 RMK A01 T10301111  RH  054%=      5-min Rain = 0
KSLS 120250Z 01012G17KT M03/M11 A3056 RMK A01 T10311112  RH  054%=      5-min Rain = 0
KSLS 120255Z 00014G20KT M03/M12 A3056 RMK A01 T10311115  RH  053%=      5-min Rain = 0
KSLS 120300Z 01012G19KT M03/M12 A3056 RMK A01 T10311116  RH  053%=      5-min Rain = 0
KSLS 120305Z 01015G23KT M03/M12 A3056 RMK A01 T10311118  RH  052%=      5-min Rain = 0
KSLS 120310Z 01012G17KT M03/M12 A3057 RMK A01 T10321119  RH  051%=      5-min Rain = 0
KSLS 120315Z 01012G17KT M03/M12 A3057 RMK A01 T10321121  RH  051%=      5-min Rain = 0
KSLS 120320Z 01013KT M03/M12 A3058 RMK A01 T10321121  RH  051%=      5-min Rain = 0
KSLS 120325Z 01012G18KT M03/M12 A3058 RMK A01 T10331120  RH  052%=      5-min Rain = 0
KSLS 120330Z 01013G19KT M03/M12 A3058 RMK A01 T10341123  RH  051%=      5-min Rain = 0
KSLS 120335Z 02011KT M03/M12 A3058 RMK A01 T10341122  RH  051%=      5-min Rain = 0
KSLS 120340Z 01011G16KT M04/M12 A3059 RMK A01 T10351122  RH  052%=      5-min Rain = 0
KSLS 120345Z 01011G16KT M04/M12 A3059 RMK A01 T10361124  RH  051%=      5-min Rain = 0
KSLS 120350Z 02012G19KT M04/M13 A3059 RMK A01 T10361125  RH  051%=      5-min Rain = 0
KSLS 120355Z 02011KT M04/M13 A306 RMK A01 T10361126  RH  051%=      5-min Rain = 0
KSLS 120400Z 02012KT M04/M13 A306 RMK A01 T10361127  RH  050%=      5-min Rain = 0
KSLS 120405Z 01012G17KT M04/M13 A306 RMK A01 T10371128  RH  050%=      5-min Rain = 0
KSLS 120410Z 01012G18KT M04/M13 A306 RMK A01 T10381127  RH  050%=      5-min Rain = 0
KSLS 120415Z 01011G16KT M04/M13 A306 RMK A01 T10381126  RH  051%=      5-min Rain = 0
KSLS 120420Z 01012G17KT M04/M13 A3059 RMK A01 T10381126  RH  051%=      5-min Rain = 0
KSLS 120425Z 01012KT M04/M13 A306 RMK A01 T10391128  RH  051%=      5-min Rain = 0
KSLS 120430Z 01011KT M04/M13 A3059 RMK A01 T10401128  RH  051%=      5-min Rain = 0
KSLS 120435Z 01011KT M04/M13 A3059 RMK A01 T10401127  RH  052%=      5-min Rain = 0
KSLS 120440Z 01010KT M04/M13 A3059 RMK A01 T10411126  RH  052%=      5-min Rain = 0
KSLS 120445Z 01012G17KT M04/M13 A3059 RMK A01 T10421127  RH  052%=      5-min Rain = 0
KSLS 120450Z 01011KT M04/M13 A3059 RMK A01 T10421127  RH  052%=      5-min Rain = 0
KSLS 120455Z 01011G16KT M04/M13 A3059 RMK A01 T10421126  RH  053%=      5-min Rain = 0
KSLS 120500Z 01012KT M04/M13 A3059 RMK A01 T10431126  RH  053%=      5-min Rain = 0
KSLS 120505Z 00010G15KT M04/M13 A3059 RMK A01 T10441125  RH  054%=      5-min Rain = 0
KSLS 120510Z 00011KT M04/M13 A306 RMK A01 T10441127  RH  053%=      5-min Rain = 0
KSLS 120515Z 01010KT M04/M13 A306 RMK A01 T10431128  RH  052%=      5-min Rain = 0
KSLS 120520Z 00009KT M04/M13 A306 RMK A01 T10441127  RH  053%=      5-min Rain = 0
KSLS 120525Z 00009KT M04/M13 A306 RMK A01 T10441126  RH  053%=      5-min Rain = 0
KSLS 120530Z 01008KT M05/M13 A306 RMK A01 T10451125  RH  054%=      5-min Rain = 0
KSLS 120535Z 00007KT M05/M12 A3061 RMK A01 T10471124  RH  056%=      5-min Rain = 0
KSLS 120540Z 00008KT M05/M13 A3061 RMK A01 T10471125  RH  055%=      5-min Rain = 0
KSLS 120545Z 01011G18KT M05/M13 A3061 RMK A01 T10461128  RH  054%=      5-min Rain = 0
KSLS 120550Z 01010KT M05/M13 A3061 RMK A01 T10471129  RH  053%=      5-min Rain = 0
KSLS 120555Z 01011KT M05/M13 A3061 RMK A01 T10471130  RH  053%=      5-min Rain = 0

Page generated in 0.0096 seconds.